Time;durP1;ratioP1;P1;durP2;ratioP2;P2;SDS_P1;SDS_P2;PMS_P1;PMS_P2;Temp;Humidity;BMP_temperature;BMP_pressure;BME280_temperature;BME280_humidity;BME280_pressure;Samples;Min_cycle;Max_cycle;Signal;HPM_P1;HPM_P2
2022/03/03 00:00:36;;;;;;;23.73;11.98;;;;;;;;;;5036512;28;20494;-77
2022/03/03 00:03:02;;;;;;;19.38;12.82;;;;;;;;;;5036489;28;20206;-77
2022/03/03 00:05:28;;;;;;;20.10;13.23;;;;;;;;;;5032976;28;20025;-77
2022/03/03 00:07:55;;;;;;;20.15;12.80;;;;;;;;;;5036336;28;20021;-77
2022/03/03 00:10:21;;;;;;;19.52;12.50;;;;;;;;;;5037153;28;20048;-77
2022/03/03 00:12:47;;;;;;;21.17;12.68;;;;;;;;;;5036218;28;20021;-77
2022/03/03 00:15:14;;;;;;;24.20;13.55;;;;;;;;;;5034751;28;20052;-77
2022/03/03 00:17:40;;;;;;;19.63;13.38;;;;;;;;;;5032932;28;20030;-77
2022/03/03 00:20:07;;;;;;;19.70;13.23;;;;;;;;;;5033296;28;20028;-77
2022/03/03 00:22:33;;;;;;;19.58;12.57;;;;;;;;;;5069769;28;20033;-77
2022/03/03 00:24:59;;;;;;;24.85;14.70;;;;;;;;;;5035958;28;20029;-77
2022/03/03 00:27:26;;;;;;;24.67;14.77;;;;;;;;;;5034700;28;20030;-77
2022/03/03 00:29:52;;;;;;;26.60;15.48;;;;;;;;;;5035749;28;20524;-76
2022/03/03 00:32:19;;;;;;;23.08;13.98;;;;;;;;;;5016062;28;20010;-77
2022/03/03 00:34:45;;;;;;;26.20;14.65;;;;;;;;;;5037782;28;20544;-77
2022/03/03 00:37:12;;;;;;;22.73;14.05;;;;;;;;;;5035493;28;20021;-77
2022/03/03 00:39:38;;;;;;;23.52;14.18;;;;;;;;;;5034294;28;20033;-77
2022/03/03 00:42:05;;;;;;;22.33;13.32;;;;;;;;;;5035447;28;20041;-77
2022/03/03 00:44:31;;;;;;;22.27;13.57;;;;;;;;;;5032617;28;20022;-77
2022/03/03 00:46:57;;;;;;;21.60;13.13;;;;;;;;;;5035888;28;20087;-77
2022/03/03 00:49:24;;;;;;;20.50;13.02;;;;;;;;;;5036702;28;20029;-77
2022/03/03 00:51:50;;;;;;;21.35;12.68;;;;;;;;;;5035317;28;20021;-77
2022/03/03 00:54:16;;;;;;;19.73;11.32;;;;;;;;;;5034194;28;20049;-77
2022/03/03 00:56:44;;;;;;;20.27;11.77;;;;;;;;;;5032837;28;20024;-77
2022/03/03 00:59:11;;;;;;;19.25;11.95;;;;;;;;;;5032137;28;20074;-77
2022/03/03 01:01:37;;;;;;;19.27;12.60;;;;;;;;;;5035950;28;20051;-77
2022/03/03 01:04:04;;;;;;;19.92;12.40;;;;;;;;;;5035182;28;20032;-77
2022/03/03 01:06:30;;;;;;;18.42;12.55;;;;;;;;;;5034957;28;20024;-77
2022/03/03 01:08:56;;;;;;;21.77;12.32;;;;;;;;;;5035262;28;20029;-77
2022/03/03 01:11:23;;;;;;;19.50;12.38;;;;;;;;;;5030881;28;20032;-77
2022/03/03 01:13:49;;;;;;;20.83;13.27;;;;;;;;;;5036890;28;20082;-77
2022/03/03 01:16:15;;;;;;;22.95;13.20;;;;;;;;;;5035326;28;20082;-77
2022/03/03 01:18:42;;;;;;;22.40;13.65;;;;;;;;;;5034942;28;20032;-77
2022/03/03 01:21:09;;;;;;;26.42;15.35;;;;;;;;;;5034629;28;20024;-77
2022/03/03 01:23:35;;;;;;;29.23;15.30;;;;;;;;;;5032379;28;20013;-77
2022/03/03 01:26:01;;;;;;;23.38;15.25;;;;;;;;;;5033884;28;20036;-77
2022/03/03 01:28:28;;;;;;;23.33;14.57;;;;;;;;;;5035365;28;20034;-77
2022/03/03 01:30:54;;;;;;;23.25;13.35;;;;;;;;;;5033587;28;20437;-77
2022/03/03 01:33:20;;;;;;;16.50;11.05;;;;;;;;;;5033356;28;20029;-77
2022/03/03 01:35:47;;;;;;;20.23;11.98;;;;;;;;;;5031965;28;20505;-77
2022/03/03 01:38:13;;;;;;;18.75;12.35;;;;;;;;;;5031162;28;20386;-77
2022/03/03 01:40:40;;;;;;;17.77;12.27;;;;;;;;;;5036568;28;20049;-77
2022/03/03 01:43:06;;;;;;;22.38;13.27;;;;;;;;;;5034528;28;20034;-77
2022/03/03 01:45:33;;;;;;;17.48;12.15;;;;;;;;;;5034637;28;20018;-77
2022/03/03 01:48:01;;;;;;;19.48;12.90;;;;;;;;;;5034488;28;20033;-77
2022/03/03 01:50:27;;;;;;;20.38;13.25;;;;;;;;;;5030765;28;20006;-77
2022/03/03 01:52:54;;;;;;;21.75;13.32;;;;;;;;;;5034673;28;20041;-77
2022/03/03 01:55:20;;;;;;;22.88;14.20;;;;;;;;;;5033599;28;20038;-77
2022/03/03 01:57:50;;;;;;;22.05;13.45;;;;;;;;;;5034511;28;20021;-77
2022/03/03 02:00:17;;;;;;;23.38;13.50;;;;;;;;;;5033247;28;20398;-77
2022/03/03 02:02:43;;;;;;;20.55;13.93;;;;;;;;;;5032467;28;20086;-77
2022/03/03 02:05:09;;;;;;;21.55;12.57;;;;;;;;;;5031490;28;20035;-77
2022/03/03 02:07:36;;;;;;;24.42;12.02;;;;;;;;;;5036430;28;20033;-77
2022/03/03 02:10:03;;;;;;;25.85;13.45;;;;;;;;;;5034371;28;20397;-77
2022/03/03 02:12:29;;;;;;;19.75;13.07;;;;;;;;;;5032835;28;20029;-77
2022/03/03 02:14:56;;;;;;;19.67;12.93;;;;;;;;;;5032898;28;20036;-77
2022/03/03 02:17:22;;;;;;;21.38;12.65;;;;;;;;;;5029724;28;20014;-77
2022/03/03 02:19:48;;;;;;;20.33;12.82;;;;;;;;;;5051571;28;20529;-77
2022/03/03 02:22:15;;;;;;;23.40;13.50;;;;;;;;;;5034104;28;20112;-77
2022/03/03 02:24:43;;;;;;;18.55;12.63;;;;;;;;;;5034296;28;20497;-77
2022/03/03 02:27:10;;;;;;;22.60;14.32;;;;;;;;;;5034041;28;20021;-76
2022/03/03 02:29:36;;;;;;;22.92;14.73;;;;;;;;;;5032129;28;20022;-77
2022/03/03 02:32:04;;;;;;;24.63;14.82;;;;;;;;;;5032200;28;20025;-77
2022/03/03 02:34:31;;;;;;;20.02;13.43;;;;;;;;;;5035959;28;20043;-77
2022/03/03 02:36:57;;;;;;;20.88;14.15;;;;;;;;;;5034192;28;20493;-77
2022/03/03 02:39:24;;;;;;;19.08;13.32;;;;;;;;;;5032805;28;20486;-77
2022/03/03 02:41:50;;;;;;;21.33;12.57;;;;;;;;;;5033472;28;20033;-76
2022/03/03 02:44:17;;;;;;;23.55;13.35;;;;;;;;;;5029156;28;20035;-77
2022/03/03 02:46:43;;;;;;;19.20;13.23;;;;;;;;;;5035789;28;20033;-77
2022/03/03 02:49:10;;;;;;;17.85;11.70;;;;;;;;;;5033944;28;20028;-77
2022/03/03 02:51:36;;;;;;;18.15;12.38;;;;;;;;;;5033095;28;20025;-77
2022/03/03 02:54:03;;;;;;;17.58;12.40;;;;;;;;;;5032302;28;20106;-77
2022/03/03 02:56:29;;;;;;;18.40;12.50;;;;;;;;;;5029660;28;20501;-77
2022/03/03 02:58:56;;;;;;;20.02;12.45;;;;;;;;;;5033912;28;20478;-77
2022/03/03 03:01:22;;;;;;;21.77;12.50;;;;;;;;;;5034224;28;20036;-77
2022/03/03 03:03:48;;;;;;;19.83;12.30;;;;;;;;;;5035268;28;20025;-77
2022/03/03 03:06:15;;;;;;;19.50;12.75;;;;;;;;;;5037531;28;20397;-77
2022/03/03 03:08:41;;;;;;;22.45;13.32;;;;;;;;;;5036302;28;20514;-77
2022/03/03 03:11:09;;;;;;;19.83;13.02;;;;;;;;;;5034334;28;20033;-77
2022/03/03 03:13:35;;;;;;;20.55;12.82;;;;;;;;;;5039656;28;20029;-77
2022/03/03 03:16:04;;;;;;;23.00;13.27;;;;;;;;;;5036950;28;20531;-77
2022/03/03 03:18:30;;;;;;;19.63;13.48;;;;;;;;;;5037362;28;20508;-77
2022/03/03 03:20:56;;;;;;;24.15;13.60;;;;;;;;;;5037311;28;20025;-77
2022/03/03 03:23:23;;;;;;;19.85;13.70;;;;;;;;;;5033099;28;20483;-77
2022/03/03 03:25:50;;;;;;;24.77;14.25;;;;;;;;;;5038603;28;20079;-77
2022/03/03 03:28:18;;;;;;;20.83;13.20;;;;;;;;;;5037553;28;20036;-78
2022/03/03 03:30:45;;;;;;;19.95;11.93;;;;;;;;;;5035551;28;20037;-77
2022/03/03 03:33:11;;;;;;;26.67;12.75;;;;;;;;;;5035516;28;20381;-77
2022/03/03 03:35:38;;;;;;;22.70;13.35;;;;;;;;;;5035059;28;20037;-77
2022/03/03 03:38:04;;;;;;;25.20;13.27;;;;;;;;;;5034651;28;20041;-77
2022/03/03 03:40:31;;;;;;;25.35;14.18;;;;;;;;;;5036568;28;20053;-77
2022/03/03 03:42:57;;;;;;;21.85;13.50;;;;;;;;;;5036799;28;20402;-77
2022/03/03 03:45:23;;;;;;;22.20;12.40;;;;;;;;;;5035180;28;20021;-77
2022/03/03 03:47:50;;;;;;;20.30;12.30;;;;;;;;;;5036592;28;20055;-77
2022/03/03 03:50:17;;;;;;;21.20;12.32;;;;;;;;;;5032699;28;20500;-77
2022/03/03 03:52:43;;;;;;;23.33;13.25;;;;;;;;;;5038634;28;20045;-77
2022/03/03 03:55:11;;;;;;;18.83;12.20;;;;;;;;;;5036577;28;20038;-77
2022/03/03 03:57:38;;;;;;;18.63;12.50;;;;;;;;;;5036667;28;20036;-77
2022/03/03 04:00:05;;;;;;;20.42;12.48;;;;;;;;;;5036075;28;20091;-77
2022/03/03 04:02:32;;;;;;;21.52;12.63;;;;;;;;;;5033574;28;20028;-77
2022/03/03 04:04:58;;;;;;;20.35;12.75;;;;;;;;;;5036279;28;20037;-77
2022/03/03 04:07:24;;;;;;;24.50;12.98;;;;;;;;;;5037401;28;20039;-77
2022/03/03 04:09:51;;;;;;;20.77;12.75;;;;;;;;;;5035091;28;20021;-77
2022/03/03 04:12:17;;;;;;;22.83;12.98;;;;;;;;;;5034780;28;20021;-77
2022/03/03 04:14:43;;;;;;;22.80;14.20;;;;;;;;;;5034252;28;20047;-77
2022/03/03 04:17:11;;;;;;;21.25;13.15;;;;;;;;;;5032754;28;20021;-77
2022/03/03 04:19:37;;;;;;;20.92;12.88;;;;;;;;;;5038200;28;20028;-77
2022/03/03 04:22:03;;;;;;;21.25;14.00;;;;;;;;;;5036314;28;20032;-77
2022/03/03 04:24:30;;;;;;;19.42;12.98;;;;;;;;;;5035960;28;20021;-77
2022/03/03 04:26:56;;;;;;;21.20;13.20;;;;;;;;;;5036298;28;20013;-77
2022/03/03 04:29:23;;;;;;;19.40;12.18;;;;;;;;;;5031848;28;20037;-77
2022/03/03 04:31:51;;;;;;;19.80;12.63;;;;;;;;;;5037418;28;20394;-77
2022/03/03 04:34:19;;;;;;;19.42;13.05;;;;;;;;;;5036416;28;20049;-77
2022/03/03 04:36:45;;;;;;;20.13;12.55;;;;;;;;;;5036008;28;20029;-77
2022/03/03 04:39:12;;;;;;;19.80;12.30;;;;;;;;;;5035639;28;20520;-77
2022/03/03 04:41:39;;;;;;;19.65;12.65;;;;;;;;;;5033635;28;20044;-77
2022/03/03 04:44:05;;;;;;;20.20;12.75;;;;;;;;;;5032957;28;20437;-77
2022/03/03 04:46:32;;;;;;;19.48;13.10;;;;;;;;;;5035516;28;20033;-77
2022/03/03 04:49:02;;;;;;;18.35;12.85;;;;;;;;;;5034411;28;20021;-77
2022/03/03 04:51:36;;;;;;;18.83;13.20;;;;;;;;;;5034219;28;20033;-77
2022/03/03 04:54:04;;;;;;;20.42;12.35;;;;;;;;;;5035413;28;20023;-77
2022/03/03 04:56:30;;;;;;;20.50;12.65;;;;;;;;;;5032259;28;20552;-77
2022/03/03 04:58:56;;;;;;;22.27;13.70;;;;;;;;;;5035185;28;20029;-77
2022/03/03 05:01:23;;;;;;;25.70;17.48;;;;;;;;;;5036106;28;20030;-77
2022/03/03 05:03:49;;;;;;;27.40;17.00;;;;;;;;;;5035484;28;20033;-77
2022/03/03 05:06:17;;;;;;;28.50;16.77;;;;;;;;;;5034325;28;20031;-77
2022/03/03 05:08:44;;;;;;;25.13;14.32;;;;;;;;;;5034018;28;20024;-77
2022/03/03 05:11:10;;;;;;;22.00;13.82;;;;;;;;;;5031781;28;20029;-77
2022/03/03 05:13:37;;;;;;;20.15;13.32;;;;;;;;;;5037449;28;20032;-77
2022/03/03 05:16:03;;;;;;;26.67;13.80;;;;;;;;;;5035090;28;20033;-77
2022/03/03 05:18:30;;;;;;;24.17;14.63;;;;;;;;;;5035079;28;20019;-77
2022/03/03 05:20:57;;;;;;;19.95;12.60;;;;;;;;;;5035279;28;20021;-77
2022/03/03 05:23:23;;;;;;;20.30;12.35;;;;;;;;;;5029820;28;20491;-77
2022/03/03 05:25:50;;;;;;;19.48;13.10;;;;;;;;;;5036151;28;20051;-77
2022/03/03 05:28:16;;;;;;;21.27;13.98;;;;;;;;;;5035336;28;20036;-77
2022/03/03 05:30:43;;;;;;;17.50;12.18;;;;;;;;;;5034552;28;20029;-77
2022/03/03 05:33:09;;;;;;;20.00;13.02;;;;;;;;;;5043839;28;20028;-77
2022/03/03 05:35:36;;;;;;;19.38;12.75;;;;;;;;;;5032491;28;20036;-77
2022/03/03 05:38:03;;;;;;;21.80;13.60;;;;;;;;;;5033090;28;20028;-77
2022/03/03 05:40:31;;;;;;;22.17;13.32;;;;;;;;;;5034714;28;20437;-77
2022/03/03 05:42:57;;;;;;;20.13;13.48;;;;;;;;;;5034651;28;20021;-77
2022/03/03 05:45:23;;;;;;;22.83;14.73;;;;;;;;;;5034592;28;20033;-77
2022/03/03 05:47:50;;;;;;;22.60;14.15;;;;;;;;;;5034179;28;20017;-77
2022/03/03 05:50:16;;;;;;;21.90;14.02;;;;;;;;;;5030541;28;20036;-77
2022/03/03 05:52:43;;;;;;;23.65;14.07;;;;;;;;;;5036304;28;20051;-77
2022/03/03 05:55:09;;;;;;;25.63;14.55;;;;;;;;;;5034058;28;20086;-77
2022/03/03 05:57:45;;;;;;;22.98;14.57;;;;;;;;;;5034419;28;20026;-77
2022/03/03 06:00:14;;;;;;;21.80;14.23;;;;;;;;;;5034737;28;20021;-77
2022/03/03 06:02:49;;;;;;;24.10;15.60;;;;;;;;;;5032522;28;20066;-77
2022/03/03 06:05:20;;;;;;;22.83;14.30;;;;;;;;;;5029864;28;20029;-77
2022/03/03 06:07:50;;;;;;;22.80;14.90;;;;;;;;;;5036301;28;20014;-77
2022/03/03 06:10:20;;;;;;;21.10;14.80;;;;;;;;;;5034382;28;20030;-77
2022/03/03 06:12:48;;;;;;;23.02;14.18;;;;;;;;;;5034469;28;20095;-77
2022/03/03 06:15:14;;;;;;;33.92;14.10;;;;;;;;;;5034321;28;20046;-77
2022/03/03 06:17:44;;;;;;;21.50;14.13;;;;;;;;;;5032938;28;20021;-77
2022/03/03 06:20:11;;;;;;;30.33;17.55;;;;;;;;;;5031194;28;20033;-77
2022/03/03 06:22:37;;;;;;;21.63;14.07;;;;;;;;;;5036034;28;20030;-77
2022/03/03 06:25:05;;;;;;;21.15;14.23;;;;;;;;;;5033679;28;20075;-77
2022/03/03 06:27:32;;;;;;;22.40;14.20;;;;;;;;;;5034146;28;20386;-77
2022/03/03 06:29:58;;;;;;;20.88;14.90;;;;;;;;;;5034092;28;20029;-77
2022/03/03 06:32:25;;;;;;;23.48;15.35;;;;;;;;;;5030082;28;20026;-77
2022/03/03 06:34:51;;;;;;;24.83;16.33;;;;;;;;;;5035287;28;20040;-77
2022/03/03 06:37:17;;;;;;;27.25;14.70;;;;;;;;;;5034316;28;20025;-77
2022/03/03 06:39:44;;;;;;;24.20;15.07;;;;;;;;;;5036480;28;20552;-77
2022/03/03 06:42:10;;;;;;;25.27;14.95;;;;;;;;;;5038070;28;20043;-77
2022/03/03 06:44:36;;;;;;;27.33;16.02;;;;;;;;;;5034201;28;20080;-77
2022/03/03 06:47:03;;;;;;;21.63;14.63;;;;;;;;;;5036657;28;20021;-77
2022/03/03 06:49:29;;;;;;;23.35;14.63;;;;;;;;;;5037833;28;20044;-77
2022/03/03 06:51:57;;;;;;;22.80;14.25;;;;;;;;;;5036539;28;20014;-77
2022/03/03 06:54:24;;;;;;;20.80;14.55;;;;;;;;;;5037664;28;20040;-77
2022/03/03 06:56:50;;;;;;;21.88;13.93;;;;;;;;;;5037309;28;20502;-77
2022/03/03 06:59:17;;;;;;;18.33;13.02;;;;;;;;;;5033325;28;20372;-77
2022/03/03 07:01:44;;;;;;;19.67;13.45;;;;;;;;;;5039218;28;20022;-77
2022/03/03 07:04:13;;;;;;;20.98;12.80;;;;;;;;;;5037637;28;20024;-77
2022/03/03 07:06:39;;;;;;;20.05;13.48;;;;;;;;;;5037557;28;20071;-77
2022/03/03 07:09:08;;;;;;;18.05;12.57;;;;;;;;;;5037043;28;20027;-77
2022/03/03 07:11:35;;;;;;;17.00;12.73;;;;;;;;;;5034913;28;20017;-77
2022/03/03 07:14:01;;;;;;;18.30;12.68;;;;;;;;;;5036075;28;20386;-77
2022/03/03 07:16:41;;;;;;;21.85;13.20;;;;;;;;;;5038731;28;20033;-77
2022/03/03 07:19:28;;;;;;;20.42;13.65;;;;;;;;;;5037335;28;20478;-77
2022/03/03 07:22:02;;;;;;;17.25;11.85;;;;;;;;;;5032104;28;20051;-78
2022/03/03 07:24:33;;;;;;;21.55;13.20;;;;;;;;;;5035868;28;20022;-77
2022/03/03 07:27:00;;;;;;;20.02;13.32;;;;;;;;;;5035689;28;20024;-78
2022/03/03 07:29:29;;;;;;;24.98;13.63;;;;;;;;;;5033651;28;20032;-77
2022/03/03 07:31:56;;;;;;;25.55;14.00;;;;;;;;;;5037348;28;20033;-77
2022/03/03 07:34:26;;;;;;;24.08;13.25;;;;;;;;;;5037649;28;20043;-77
2022/03/03 07:36:56;;;;;;;24.35;14.13;;;;;;;;;;5035565;28;20032;-77
2022/03/03 07:39:25;;;;;;;22.42;12.43;;;;;;;;;;5036960;28;20517;-77
2022/03/03 07:41:52;;;;;;;22.60;12.90;;;;;;;;;;5036460;28;20401;-77
2022/03/03 07:44:18;;;;;;;21.60;13.73;;;;;;;;;;5032797;28;20485;-77
2022/03/03 07:46:44;;;;;;;22.27;14.15;;;;;;;;;;5038908;28;20029;-77
2022/03/03 07:49:12;;;;;;;22.92;13.32;;;;;;;;;;5036537;28;20025;-78
2022/03/03 07:51:38;;;;;;;21.70;14.15;;;;;;;;;;5035491;28;20024;-77
2022/03/03 07:54:05;;;;;;;26.60;15.07;;;;;;;;;;5036574;28;20044;-78
2022/03/03 07:56:37;;;;;;;23.90;14.75;;;;;;;;;;5033926;28;20022;-78
2022/03/03 07:59:06;;;;;;;23.35;14.60;;;;;;;;;;5034901;28;20026;-77
2022/03/03 08:01:34;;;;;;;24.30;15.70;;;;;;;;;;5036652;28;20025;-78
2022/03/03 08:04:01;;;;;;;22.67;14.98;;;;;;;;;;5035406;28;20013;-78
2022/03/03 08:06:29;;;;;;;21.65;14.60;;;;;;;;;;5034943;28;20055;-78
2022/03/03 08:08:55;;;;;;;23.23;15.27;;;;;;;;;;5036400;28;20397;-77
2022/03/03 08:11:23;;;;;;;21.83;14.40;;;;;;;;;;5040954;28;20040;-76
2022/03/03 08:13:53;;;;;;;24.88;13.98;;;;;;;;;;5023753;28;20036;-77
2022/03/03 08:16:19;;;;;;;26.33;14.80;;;;;;;;;;5033434;28;20414;-77
2022/03/03 08:18:47;;;;;;;25.95;14.85;;;;;;;;;;5034109;28;20017;-77
2022/03/03 08:21:14;;;;;;;21.38;14.40;;;;;;;;;;5034727;28;20033;-77
2022/03/03 08:23:42;;;;;;;21.98;14.38;;;;;;;;;;5032179;28;20017;-77
2022/03/03 08:26:12;;;;;;;24.60;14.90;;;;;;;;;;5032771;28;20034;-77
2022/03/03 08:28:42;;;;;;;23.13;14.67;;;;;;;;;;5037204;28;20376;-77
2022/03/03 08:31:09;;;;;;;25.08;15.65;;;;;;;;;;5031784;28;20021;-78
2022/03/03 08:33:51;;;;;;;32.90;17.80;;;;;;;;;;5034252;28;20022;-77
2022/03/03 08:36:44;;;;;;;30.65;17.70;;;;;;;;;;5034690;28;20391;-77
2022/03/03 08:39:11;;;;;;;23.60;15.05;;;;;;;;;;5034673;28;20048;-77
2022/03/03 08:41:38;;;;;;;23.85;15.50;;;;;;;;;;5030572;28;20503;-77
2022/03/03 08:44:05;;;;;;;23.95;15.48;;;;;;;;;;5032437;28;20025;-77
2022/03/03 08:46:33;;;;;;;26.15;14.80;;;;;;;;;;5034538;28;20029;-77
2022/03/03 08:49:00;;;;;;;22.60;14.10;;;;;;;;;;5034567;28;20025;-77
2022/03/03 08:51:27;;;;;;;21.88;15.48;;;;;;;;;;5030302;28;20029;-77
2022/03/03 08:53:54;;;;;;;25.40;16.58;;;;;;;;;;5030153;28;20024;-77
2022/03/03 08:56:22;;;;;;;30.73;16.25;;;;;;;;;;5029714;28;20516;-77
2022/03/03 08:58:49;;;;;;;27.77;16.65;;;;;;;;;;5043734;28;20382;-77
2022/03/03 09:01:15;;;;;;;35.60;17.15;;;;;;;;;;5065911;28;20393;-77
2022/03/03 09:03:43;;;;;;;25.02;15.75;;;;;;;;;;5032841;28;20532;-77
2022/03/03 09:06:14;;;;;;;22.25;15.65;;;;;;;;;;5033980;28;20044;-77
2022/03/03 09:08:41;;;;;;;23.50;14.57;;;;;;;;;;5033042;28;20026;-77
2022/03/03 09:11:07;;;;;;;20.02;13.43;;;;;;;;;;5031285;28;20026;-77
2022/03/03 09:13:33;;;;;;;21.50;12.77;;;;;;;;;;5036877;28;20026;-78
2022/03/03 09:16:00;;;;;;;19.75;13.52;;;;;;;;;;5030158;28;20038;-79
2022/03/03 09:18:26;;;;;;;24.15;13.15;;;;;;;;;;5026282;28;20029;-79
2022/03/03 09:20:53;;;;;;;19.92;13.13;;;;;;;;;;5033018;28;20040;-79
2022/03/03 09:23:19;;;;;;;21.42;13.07;;;;;;;;;;5029332;28;20520;-79
2022/03/03 09:25:45;;;;;;;19.35;11.43;;;;;;;;;;5036233;28;20029;-79
2022/03/03 09:28:12;;;;;;;16.90;10.82;;;;;;;;;;5034402;28;20433;-79
2022/03/03 09:30:38;;;;;;;21.83;13.05;;;;;;;;;;5021967;28;20473;-79
2022/03/03 09:33:05;;;;;;;18.40;12.60;;;;;;;;;;5024023;28;20044;-79
2022/03/03 09:35:32;;;;;;;17.35;12.30;;;;;;;;;;5026544;28;20041;-78
2022/03/03 09:37:59;;;;;;;17.92;12.50;;;;;;;;;;5029923;28;20014;-79
2022/03/03 09:40:25;;;;;;;18.92;12.40;;;;;;;;;;5034733;28;20053;-79
2022/03/03 09:42:59;;;;;;;21.27;12.13;;;;;;;;;;5034213;28;20039;-78
2022/03/03 09:45:25;;;;;;;16.88;11.85;;;;;;;;;;5032916;28;20025;-79
2022/03/03 09:47:55;;;;;;;17.33;12.25;;;;;;;;;;5032260;28;20032;-79
2022/03/03 09:50:22;;;;;;;13.93;10.23;;;;;;;;;;5013057;28;20024;-79
2022/03/03 09:52:49;;;;;;;14.90;11.00;;;;;;;;;;5035832;28;20469;-78
2022/03/03 09:55:16;;;;;;;17.10;10.63;;;;;;;;;;5032791;28;20047;-79
2022/03/03 09:57:42;;;;;;;13.73;9.65;;;;;;;;;;5033940;28;20023;-78
2022/03/03 10:00:11;;;;;;;18.77;10.93;;;;;;;;;;5032022;28;20482;-78
2022/03/03 10:02:56;;;;;;;14.30;9.38;;;;;;;;;;5028958;28;20018;-78
2022/03/03 10:05:32;;;;;;;13.45;8.63;;;;;;;;;;5012234;28;20022;-79
2022/03/03 10:08:06;;;;;;;8.98;6.55;;;;;;;;;;5043352;28;20031;-79
2022/03/03 10:10:33;;;;;;;9.77;7.15;;;;;;;;;;5033241;28;20036;-79
2022/03/03 10:12:59;;;;;;;7.88;6.32;;;;;;;;;;5033224;28;20025;-78
2022/03/03 10:15:26;;;;;;;11.93;6.60;;;;;;;;;;5031582;28;20044;-77
2022/03/03 10:18:00;;;;;;;10.93;7.78;;;;;;;;;;5021122;28;20017;-78
2022/03/03 10:20:27;;;;;;;12.82;7.50;;;;;;;;;;5026720;28;20036;-79
2022/03/03 10:23:00;;;;;;;11.15;7.28;;;;;;;;;;5033276;28;20022;-78
2022/03/03 10:25:29;;;;;;;8.98;6.88;;;;;;;;;;5034421;28;20028;-79
2022/03/03 10:27:55;;;;;;;7.10;5.55;;;;;;;;;;5032542;28;20030;-79
2022/03/03 10:30:22;;;;;;;8.65;6.18;;;;;;;;;;5031293;28;20040;-79
2022/03/03 10:32:49;;;;;;;7.22;5.55;;;;;;;;;;5031538;28;20029;-78
2022/03/03 10:35:17;;;;;;;5.80;4.10;;;;;;;;;;5028969;28;20041;-79
2022/03/03 10:37:44;;;;;;;9.77;5.00;;;;;;;;;;5032348;28;20027;-79
2022/03/03 10:40:13;;;;;;;6.72;4.88;;;;;;;;;;5031274;28;20055;-79
2022/03/03 10:42:42;;;;;;;6.28;5.00;;;;;;;;;;5030574;28;20024;-79
2022/03/03 10:45:15;;;;;;;6.13;4.65;;;;;;;;;;5033073;28;20025;-79
2022/03/03 10:47:58;;;;;;;5.75;4.63;;;;;;;;;;5031437;28;20014;-79
2022/03/03 10:50:25;;;;;;;6.68;5.00;;;;;;;;;;5012724;28;20326;-79
2022/03/03 10:52:51;;;;;;;11.27;4.70;;;;;;;;;;5034744;28;20025;-79
2022/03/03 10:55:18;;;;;;;7.90;5.35;;;;;;;;;;5031180;28;20803;-78
2022/03/03 10:57:45;;;;;;;5.60;4.25;;;;;;;;;;5033211;28;20021;-79
2022/03/03 11:00:25;;;;;;;5.60;4.20;;;;;;;;;;5031828;28;20143;-79
2022/03/03 11:02:53;;;;;;;5.50;4.00;;;;;;;;;;5025163;28;20021;-79
2022/03/03 11:05:20;;;;;;;7.32;4.40;;;;;;;;;;5019608;28;20044;-79
2022/03/03 11:07:47;;;;;;;5.30;4.10;;;;;;;;;;5048819;28;20033;-79
2022/03/03 11:10:15;;;;;;;7.47;3.88;;;;;;;;;;5025123;28;20533;-80
2022/03/03 11:12:45;;;;;;;6.20;4.07;;;;;;;;;;5023097;28;20029;-78
2022/03/03 11:15:12;;;;;;;5.15;3.90;;;;;;;;;;5030201;28;20033;-78
2022/03/03 11:17:39;;;;;;;8.07;4.18;;;;;;;;;;5031115;28;20029;-78
2022/03/03 11:20:07;;;;;;;4.82;4.32;;;;;;;;;;5030709;28;20402;-77
2022/03/03 11:22:33;;;;;;;5.22;4.20;;;;;;;;;;5032065;28;20018;-78
2022/03/03 11:25:02;;;;;;;7.00;3.63;;;;;;;;;;5034300;28;20071;-79
2022/03/03 11:27:32;;;;;;;5.75;4.43;;;;;;;;;;5036513;28;20029;-78
2022/03/03 11:30:16;;;;;;;5.60;4.07;;;;;;;;;;5035848;28;20013;-78
2022/03/03 11:32:42;;;;;;;3.33;2.90;;;;;;;;;;5033883;28;20118;-78
2022/03/03 11:35:10;;;;;;;6.13;3.30;;;;;;;;;;5033641;28;20033;-79
2022/03/03 11:37:41;;;;;;;4.15;3.53;;;;;;;;;;5036992;28;20033;-79
2022/03/03 11:40:07;;;;;;;4.65;3.35;;;;;;;;;;5036225;28;20052;-80
2022/03/03 11:42:48;;;;;;;3.95;3.53;;;;;;;;;;5036179;28;20413;-79
2022/03/03 11:45:15;;;;;;;4.55;3.35;;;;;;;;;;5033823;28;20047;-79
2022/03/03 11:47:45;;;;;;;3.08;2.78;;;;;;;;;;5033435;28;20490;-80
2022/03/03 11:50:19;;;;;;;4.28;3.22;;;;;;;;;;5031026;28;20033;-79
2022/03/03 11:52:54;;;;;;;4.22;3.10;;;;;;;;;;5037719;28;20033;-80
2022/03/03 11:55:31;;;;;;;3.13;2.80;;;;;;;;;;5028780;28;20037;-83
2022/03/03 11:58:10;;;;;;;4.03;2.55;;;;;;;;;;5032267;28;20478;-82
2022/03/03 12:00:47;;;;;;;3.90;2.90;;;;;;;;;;5034437;28;20394;-82
2022/03/03 12:03:15;;;;;;;4.28;2.50;;;;;;;;;;5027696;28;20483;-80
2022/03/03 12:05:42;;;;;;;2.60;2.38;;;;;;;;;;5026945;28;20094;-80
2022/03/03 12:08:12;;;;;;;2.88;2.58;;;;;;;;;;5033255;28;20029;-80
2022/03/03 12:10:56;;;;;;;3.72;2.10;;;;;;;;;;5038440;28;20025;-80
2022/03/03 12:13:32;;;;;;;3.00;2.10;;;;;;;;;;5035675;28;20032;-81
2022/03/03 12:16:17;;;;;;;2.72;2.05;;;;;;;;;;5036453;28;20029;-80
2022/03/03 12:18:45;;;;;;;4.38;2.20;;;;;;;;;;5036457;28;20063;-81
2022/03/03 12:21:32;;;;;;;2.10;1.95;;;;;;;;;;5036337;28;20024;-81
2022/03/03 12:24:28;;;;;;;2.50;2.17;;;;;;;;;;5036852;28;20025;-81
2022/03/03 12:26:58;;;;;;;2.28;1.98;;;;;;;;;;5035242;28;20029;-81
2022/03/03 12:29:25;;;;;;;;;;;;;;;;;;5017130;28;20040;-80
2022/03/03 12:31:51;;;;;;;3.13;2.13;;;;;;;;;;5038085;28;19905;-80
2022/03/03 12:34:20;;;;;;;4.50;1.95;;;;;;;;;;5036063;28;20025;-80
2022/03/03 12:36:47;;;;;;;2.55;2.08;;;;;;;;;;5034199;28;20029;-80
2022/03/03 12:39:15;;;;;;;1.92;1.83;;;;;;;;;;5034421;28;20024;-81
2022/03/03 12:41:43;;;;;;;2.08;1.75;;;;;;;;;;5034128;28;20045;-81
2022/03/03 12:44:13;;;;;;;2.58;2.38;;;;;;;;;;5033154;28;20031;-81
2022/03/03 12:46:39;;;;;;;;;;;;;;;;;;5038180;28;20029;-81
2022/03/03 12:49:06;;;;;;;2.60;1.90;;;;;;;;;;5034707;28;19905;-81
2022/03/03 12:51:33;;;;;;;2.30;2.10;;;;;;;;;;5035656;28;20017;-81
2022/03/03 12:54:05;;;;;;;2.13;1.92;;;;;;;;;;5034442;28;20506;-81
2022/03/03 12:56:31;;;;;;;2.38;2.13;;;;;;;;;;5032430;28;20029;-81
2022/03/03 12:59:00;;;;;;;3.90;2.28;;;;;;;;;;5036301;28;20036;-81
2022/03/03 13:01:27;;;;;;;4.20;2.00;;;;;;;;;;5036606;28;20030;-80
2022/03/03 13:03:54;;;;;;;4.07;1.67;;;;;;;;;;5035521;28;20017;-81
2022/03/03 13:06:21;;;;;;;2.95;2.00;;;;;;;;;;5035553;28;20075;-81
2022/03/03 13:08:48;;;;;;;2.15;1.95;;;;;;;;;;5034592;28;20035;-81
2022/03/03 13:11:18;;;;;;;3.53;2.00;;;;;;;;;;5030177;28;20064;-81
2022/03/03 13:13:46;;;;;;;2.80;1.80;;;;;;;;;;5037219;28;20034;-81
2022/03/03 13:16:13;;;;;;;2.95;1.98;;;;;;;;;;5033705;28;20034;-81
2022/03/03 13:18:39;;;;;;;2.47;1.95;;;;;;;;;;5033685;28;20030;-80
2022/03/03 13:21:08;;;;;;;2.97;2.15;;;;;;;;;;5034963;28;20025;-81
2022/03/03 13:23:39;;;;;;;3.00;2.03;;;;;;;;;;5032221;28;20505;-81
2022/03/03 13:26:15;;;;;;;2.45;1.83;;;;;;;;;;5033009;28;20503;-80
2022/03/03 13:28:41;;;;;;;2.20;2.00;;;;;;;;;;5067752;28;20033;-80
2022/03/03 13:31:08;;;;;;;2.25;1.70;;;;;;;;;;5034733;28;20075;-80
2022/03/03 13:33:41;;;;;;;2.08;1.88;;;;;;;;;;5034770;28;20035;-80
2022/03/03 13:36:12;;;;;;;3.17;1.60;;;;;;;;;;5034679;28;20061;-80
2022/03/03 13:38:39;;;;;;;3.00;2.10;;;;;;;;;;5032450;28;20040;-79
2022/03/03 13:41:23;;;;;;;2.10;1.88;;;;;;;;;;5032815;28;20052;-80
2022/03/03 13:43:50;;;;;;;2.60;1.52;;;;;;;;;;5036414;28;20021;-80
2022/03/03 13:46:30;;;;;;;2.47;1.70;;;;;;;;;;5034610;28;20029;-80
2022/03/03 13:48:56;;;;;;;2.58;1.83;;;;;;;;;;5033879;28;20571;-80
2022/03/03 13:51:22;;;;;;;2.22;1.65;;;;;;;;;;5034424;28;20068;-80
2022/03/03 13:54:02;;;;;;;2.40;1.77;;;;;;;;;;5031948;28;20027;-80
2022/03/03 13:56:30;;;;;;;2.38;1.52;;;;;;;;;;5028163;28;20050;-80
2022/03/03 13:59:09;;;;;;;2.67;1.90;;;;;;;;;;5034847;28;20502;-80
2022/03/03 14:01:37;;;;;;;2.28;1.83;;;;;;;;;;5036238;28;20098;-80
2022/03/03 14:04:10;;;;;;;2.60;1.88;;;;;;;;;;5034547;28;20024;-79
2022/03/03 14:06:40;;;;;;;2.15;1.60;;;;;;;;;;5034421;28;20409;-79
2022/03/03 14:09:07;;;;;;;3.97;2.40;;;;;;;;;;5033988;28;20029;-79
2022/03/03 14:11:34;;;;;;;5.45;2.20;;;;;;;;;;5031260;28;20502;-79
2022/03/03 14:14:01;;;;;;;5.43;2.03;;;;;;;;;;5034204;28;20487;-79
2022/03/03 14:16:29;;;;;;;8.65;3.22;;;;;;;;;;5035611;28;20033;-79
2022/03/03 14:18:56;;;;;;;11.63;6.57;;;;;;;;;;5034524;28;20014;-80
2022/03/03 14:21:23;;;;;;;2.60;1.80;;;;;;;;;;5034302;28;20390;-79
2022/03/03 14:23:49;;;;;;;2.50;1.98;;;;;;;;;;5032913;28;20032;-78
2022/03/03 14:26:17;;;;;;;2.22;1.63;;;;;;;;;;5046826;28;20028;-79
2022/03/03 14:28:44;;;;;;;4.63;1.80;;;;;;;;;;5036404;28;20032;-78
2022/03/03 14:31:11;;;;;;;7.10;2.10;;;;;;;;;;5033944;28;20009;-78